Kensington, Canada
Current Conditions -  °F | °C
As of 12:00 PM on Thursday 27 Nov 2014 (Local Time) from CYYG Reporting Station
Light Snow Light Snow  
Wind Chill: 22°   Ceiling: 700
Heat Index: 34°   Visibility: 2mi
Dew Point: 32°   Wind: 22mph
Humidity: 93%   Direction: 350°N
Pressure: 29.38"   Gusts: 33mph
Location:  46.43°N, 63.65°W
Report Text: CYYG 271600Z 35019G29KT 2SM -SN BKN007 OVC021 01/M00 A2938 RMK SF5SC3 SLP952
Loading
Personal Weather Stations






























Interactive Weather Map New forecast layout! Learn more

10-Day Weather Forecast

Advertisements
Track Severe Weather on mobile